createdAt,value
2022-08-25T00:00:56.326Z,1018.500305
2022-08-25T00:02:05.050Z,1018.542419
2022-08-25T00:03:04.929Z,1018.55011
2022-08-25T00:04:00.609Z,1018.522766
2022-08-25T00:05:00.706Z,1018.55011
2022-08-25T00:07:00.677Z,1018.479919
2022-08-25T00:07:03.346Z,1018.479919
2022-08-25T00:07:56.475Z,1018.52771
2022-08-25T00:08:51.781Z,1018.438232
2022-08-25T00:09:52.411Z,1018.391418
2022-08-25T00:11:03.215Z,1018.457642
2022-08-25T00:11:03.502Z,1018.457642
2022-08-25T00:11:56.109Z,1018.402832
2022-08-25T00:12:56.096Z,1018.598572
2022-08-25T00:13:51.814Z,1018.520325
2022-08-25T00:14:55.389Z,1018.531921
2022-08-25T00:16:56.103Z,1018.44989
2022-08-25T00:17:50.899Z,1018.480652
2022-08-25T00:18:54.309Z,1018.457764
2022-08-25T00:19:47.324Z,1018.544617
2022-08-25T00:21:42.777Z,1018.361267
2022-08-25T00:22:50.557Z,1018.470642
2022-08-25T00:23:43.586Z,1018.451599
2022-08-25T00:24:45.189Z,1018.404419
2022-08-25T00:25:40.779Z,1018.470642
2022-08-25T00:26:42.948Z,1018.38855
2022-08-25T00:27:38.225Z,1018.38855
2022-08-25T00:28:40.805Z,1018.420044
2022-08-25T00:29:35.339Z,1018.408386
2022-08-25T00:30:40.637Z,1018.400146
2022-08-25T00:33:21.963Z,1018.412903
2022-08-25T00:34:08.975Z,1018.421936
2022-08-25T00:35:08.541Z,1018.426086
2022-08-25T00:36:07.801Z,1018.398926
2022-08-25T00:37:03.248Z,1018.457336
2022-08-25T00:38:06.103Z,1018.507751
2022-08-25T00:39:07.974Z,1018.484497
2022-08-25T00:40:08.234Z,1018.496094
2022-08-25T00:42:11.732Z,1018.514771
2022-08-25T00:42:15.759Z,1018.514771
2022-08-25T00:43:08.475Z,1018.510681
2022-08-25T00:44:08.620Z,1018.437317
2022-08-25T00:45:09.165Z,1018.472961
2022-08-25T00:47:08.680Z,1018.480225
2022-08-25T00:48:05.076Z,1018.475952
2022-08-25T00:49:22.462Z,1018.432739
2022-08-25T00:49:24.727Z,1018.432739
2022-08-25T00:50:08.148Z,1018.440369
2022-08-25T00:51:07.247Z,1018.527588
2022-08-25T00:52:06.682Z,1018.503479
2022-08-25T00:53:03.044Z,1018.499268
2022-08-25T00:54:06.304Z,1018.546387
2022-08-25T00:55:05.765Z,1018.463379
2022-08-25T00:55:07.670Z,1018.463379
2022-08-25T00:56:55.400Z,1018.479187
2022-08-25T00:57:59.188Z,1018.47168
2022-08-25T00:58:55.412Z,1018.459167
2022-08-25T00:59:54.411Z,1018.556702
2022-08-25T01:01:54.286Z,1018.458435
2022-08-25T01:02:53.509Z,1018.536133
2022-08-25T01:03:53.182Z,1018.535339
2022-08-25T01:04:49.517Z,1018.484131
2022-08-25T01:05:50.093Z,1018.487732
2022-08-25T01:06:44.406Z,1018.499207
2022-08-25T01:07:46.562Z,1018.479614
2022-08-25T01:08:41.060Z,1018.467041
2022-08-25T01:09:40.529Z,1018.490112
2022-08-25T01:10:41.087Z,1018.458496
2022-08-25T01:12:42.257Z,1018.509155
2022-08-25T01:13:37.218Z,1018.512817
2022-08-25T01:15:16.757Z,1018.482544
2022-08-25T01:17:12.047Z,1018.445618
2022-08-25T01:18:07.494Z,1018.425171
2022-08-25T01:19:10.205Z,1018.479614
2022-08-25T01:19:15.652Z,1018.479614
2022-08-25T01:21:52.134Z,1018.454102
2022-08-25T01:22:55.307Z,1018.477722
2022-08-25T01:23:48.623Z,1018.504517
2022-08-25T01:24:49.166Z,1018.508057
2022-08-25T01:26:44.967Z,1018.444519
2022-08-25T01:27:39.435Z,1018.502747
2022-08-25T01:28:38.004Z,1018.489868
2022-08-25T01:30:30.740Z,1018.489868
2022-08-25T01:32:02.340Z,1018.521606
2022-08-25T01:33:03.460Z,1018.501648
2022-08-25T01:33:57.793Z,1018.528809
2022-08-25T01:35:00.471Z,1018.527405
2022-08-25T01:36:58.107Z,1018.494324
2022-08-25T01:37:58.065Z,1018.509338
2022-08-25T01:38:58.270Z,1018.492737
2022-08-25T01:39:57.477Z,1018.499939
2022-08-25T01:41:54.683Z,1018.57373
2022-08-25T01:42:53.692Z,1018.54541
2022-08-25T01:43:51.888Z,1018.552551
2022-08-25T01:44:55.894Z,1018.501831
2022-08-25T01:46:53.580Z,1018.571228
2022-08-25T01:47:49.115Z,1018.5047
2022-08-25T01:48:49.232Z,1018.582336
2022-08-25T01:49:46.203Z,1018.586182
2022-08-25T01:50:42.282Z,1018.57019
2022-08-25T01:51:41.741Z,1018.581848
2022-08-25T01:52:37.698Z,1018.63208
2022-08-25T01:53:37.758Z,1018.577515
2022-08-25T01:54:32.677Z,1018.609131
2022-08-25T01:55:33.968Z,1018.593262
2022-08-25T01:57:30.100Z,1018.549255
2022-08-25T01:58:25.589Z,1018.591553
2022-08-25T01:59:29.058Z,1018.571899
2022-08-25T02:00:23.647Z,1018.571899
2022-08-25T02:02:21.653Z,1018.606995
2022-08-25T02:03:18.543Z,1018.523865
2022-08-25T02:04:17.419Z,1018.562317
2022-08-25T02:05:12.464Z,1018.467773
2022-08-25T02:06:08.782Z,1018.417419
2022-08-25T02:07:10.821Z,1018.510498
2022-08-25T02:08:06.551Z,1018.483215
2022-08-25T02:09:05.571Z,1018.538208
2022-08-25T02:10:02.238Z,1018.495056
2022-08-25T02:11:59.606Z,1018.4245
2022-08-25T02:12:56.335Z,1018.529968
2022-08-25T02:13:58.434Z,1018.493958
2022-08-25T02:15:48.313Z,1018.502686
2022-08-25T02:16:25.547Z,1018.453125
2022-08-25T02:17:24.734Z,1018.500488
2022-08-25T02:18:21.641Z,1018.496216
2022-08-25T02:19:22.468Z,1018.455872
2022-08-25T02:20:26.332Z,1018.439392
2022-08-25T02:22:32.852Z,1018.590149
2022-08-25T02:23:30.953Z,1018.53125
2022-08-25T02:24:38.897Z,1018.565674
2022-08-25T02:25:35.330Z,1018.604126
2022-08-25T02:27:35.040Z,1018.513428
2022-08-25T02:28:35.186Z,1018.602478
2022-08-25T02:29:36.107Z,1018.554993
2022-08-25T02:30:31.729Z,1018.558594
2022-08-25T02:32:26.137Z,1018.566406
2022-08-25T02:33:29.730Z,1018.570068
2022-08-25T02:34:23.923Z,1018.597412
2022-08-25T02:36:23.191Z,1018.531372
2022-08-25T02:38:22.526Z,1018.514526
2022-08-25T02:39:22.491Z,1018.600037
2022-08-25T02:40:19.327Z,1018.600037
2022-08-25T02:42:13.536Z,1018.638855
2022-08-25T02:43:11.190Z,1018.638855
2022-08-25T02:44:15.410Z,1018.661743
2022-08-25T02:45:20.568Z,1018.673218
2022-08-25T02:48:57.711Z,1018.661743
2022-08-25T02:50:00.228Z,1018.598022
2022-08-25T02:51:59.843Z,1018.672058
2022-08-25T02:52:59.217Z,1018.624573
2022-08-25T02:53:57.082Z,1018.627441
2022-08-25T02:55:00.674Z,1018.533569
2022-08-25T02:55:55.408Z,1018.649963
2022-08-25T02:56:54.682Z,1018.575134
2022-08-25T02:57:49.094Z,1018.613953
2022-08-25T02:58:54.048Z,1018.570068
2022-08-25T02:59:50.832Z,1018.585022
2022-08-25T03:00:50.404Z,1018.545471
2022-08-25T03:01:47.055Z,1018.56842
2022-08-25T03:02:46.771Z,1018.509399
2022-08-25T03:03:41.173Z,1018.556641
2022-08-25T03:04:40.968Z,1018.567993
2022-08-25T03:05:35.765Z,1018.602844
2022-08-25T03:07:35.632Z,1018.590942
2022-08-25T03:08:33.988Z,1018.555298
2022-08-25T03:09:36.617Z,1018.488892
2022-08-25T03:10:31.358Z,1018.562439
2022-08-25T03:12:24.188Z,1018.57074
2022-08-25T03:13:24.074Z,1018.550476
2022-08-25T03:14:19.494Z,1018.471802
2022-08-25T03:15:23.485Z,1018.494568
2022-08-25T03:16:20.341Z,1018.483276
2022-08-25T03:17:24.432Z,1018.416748
2022-08-25T03:18:23.554Z,1018.412354
2022-08-25T03:19:19.946Z,1018.399963
2022-08-25T03:20:21.419Z,1018.360229
2022-08-25T03:22:15.601Z,1018.321411
2022-08-25T03:24:02.991Z,1018.272583
2022-08-25T03:24:48.828Z,1018.277588
2022-08-25T03:25:52.051Z,1018.196106
2022-08-25T03:27:51.732Z,1018.300659
2022-08-25T03:28:50.785Z,1018.218018
2022-08-25T03:29:48.888Z,1018.295471
2022-08-25T03:30:48.175Z,1018.302185
2022-08-25T03:30:55.755Z,1018.302185
2022-08-25T03:31:50.299Z,1018.263428
2022-08-25T03:32:47.680Z,1018.345337
2022-08-25T03:33:47.083Z,1018.313782
2022-08-25T03:34:42.633Z,1018.274048
2022-08-25T03:35:53.404Z,1018.312012
2022-08-25T03:37:56.289Z,1018.291321
2022-08-25T03:38:52.868Z,1018.286987
2022-08-25T03:39:51.509Z,1018.337158
2022-08-25T03:40:52.076Z,1018.348511
2022-08-25T03:42:58.401Z,1018.351257
2022-08-25T03:43:57.583Z,1018.370605
2022-08-25T03:45:01.511Z,1018.358215
2022-08-25T03:45:54.144Z,1018.350464
2022-08-25T03:47:47.212Z,1018.299316
2022-08-25T03:48:51.130Z,1018.337891
2022-08-25T03:49:45.628Z,1018.278931
2022-08-25T03:50:50.506Z,1018.208679
2022-08-25T03:52:42.817Z,1018.25177
2022-08-25T03:53:37.556Z,1018.271301
2022-08-25T03:54:43.309Z,1018.231567
2022-08-25T03:55:38.142Z,1018.286011
2022-08-25T03:56:39.936Z,1018.302002
2022-08-25T03:57:34.543Z,1018.235229
2022-08-25T03:58:33.067Z,1018.27771
2022-08-25T03:59:27.828Z,1018.296814
2022-08-25T04:00:32.604Z,1018.187134
2022-08-25T04:02:30.813Z,1018.187134
2022-08-25T04:04:17.335Z,1018.269409
2022-08-25T04:04:58.785Z,1018.161743
2022-08-25T04:05:58.623Z,1018.263184
2022-08-25T04:08:00.626Z,1018.298096
2022-08-25T04:09:01.248Z,1018.29364
2022-08-25T04:10:03.429Z,1018.320862
2022-08-25T04:11:13.370Z,1018.27771
2022-08-25T04:12:09.790Z,1018.280945
2022-08-25T04:13:16.172Z,1018.190308
2022-08-25T04:14:15.916Z,1018.287354
2022-08-25T04:15:15.138Z,1018.208801
2022-08-25T04:17:13.266Z,1018.150269
2022-08-25T04:18:09.847Z,1018.118591
2022-08-25T04:19:13.798Z,1018.12561
2022-08-25T04:20:14.136Z,1018.101685
2022-08-25T04:22:14.213Z,1018.062317
2022-08-25T04:23:11.245Z,1018.046387
2022-08-25T04:24:13.228Z,1018.003418
2022-08-25T04:25:15.486Z,1018.018188
2022-08-25T04:26:14.940Z,1017.979553
2022-08-25T04:27:15.144Z,1017.963745
2022-08-25T04:28:17.068Z,1017.987122
2022-08-25T04:29:14.489Z,1017.928101
2022-08-25T04:30:18.806Z,1017.982605
2022-08-25T04:32:16.247Z,1017.958496
2022-08-25T04:33:17.182Z,1017.997192
2022-08-25T04:34:29.503Z,1017.981323
2022-08-25T04:34:30.381Z,1017.981323
2022-08-25T04:34:30.567Z,1017.981323
2022-08-25T04:36:33.100Z,1017.953369
2022-08-25T04:37:03.218Z,1017.967346
2022-08-25T04:38:06.110Z,1017.960693
2022-08-25T04:39:08.674Z,1018.050842
2022-08-25T04:40:07.645Z,1017.948914
2022-08-25T04:41:09.719Z,1017.96344
2022-08-25T04:42:11.807Z,1017.947021
2022-08-25T04:43:09.468Z,1018.028015
2022-08-25T04:44:13.026Z,1017.983887
2022-08-25T04:45:16.069Z,1018.06488
2022-08-25T04:46:20.473Z,1018.033264
2022-08-25T04:47:23.700Z,1018.005432
2022-08-25T04:48:20.195Z,1017.997192
2022-08-25T04:49:20.585Z,1017.973755
2022-08-25T04:50:27.565Z,1018.051025
2022-08-25T04:51:21.092Z,1018.039795
2022-08-25T04:52:22.518Z,1018.132935
2022-08-25T04:53:20.604Z,1018.128296
2022-08-25T04:54:24.246Z,1018.076721
2022-08-25T04:55:20.044Z,1018.088684
2022-08-25T04:57:27.927Z,1018.010437
2022-08-25T04:58:26.808Z,1018.154724
2022-08-25T04:59:30.710Z,1018.103455
2022-08-25T05:00:26.854Z,1018.033264
2022-08-25T05:01:30.934Z,1018.135132
2022-08-25T05:02:25.566Z,1018.146545
2022-08-25T05:03:26.558Z,1018.11145
2022-08-25T05:04:28.262Z,1018.049011
2022-08-25T05:05:32.087Z,1018.068359
2022-08-25T05:07:32.060Z,1018.003357
2022-08-25T05:08:28.483Z,1018.073547
2022-08-25T05:09:28.863Z,1018.0578
2022-08-25T05:10:30.554Z,1018.049561
2022-08-25T05:11:27.166Z,1017.999756
2022-08-25T05:12:30.723Z,1018.037964
2022-08-25T05:13:36.554Z,1018.006958
2022-08-25T05:14:42.929Z,1018.022278
2022-08-25T05:15:43.115Z,1018.022278
2022-08-25T05:17:05.685Z,1018.019104
2022-08-25T05:17:50.677Z,1018.037964
2022-08-25T05:17:55.991Z,1018.037964
2022-08-25T05:18:50.187Z,1018.028259
2022-08-25T05:19:46.132Z,1018.021301
2022-08-25T05:20:47.946Z,1017.966797
2022-08-25T05:21:43.254Z,1017.998474
2022-08-25T05:22:43.922Z,1017.985718
2022-08-25T05:23:39.167Z,1017.981323
2022-08-25T05:24:43.386Z,1018.008545
2022-08-25T05:25:41.574Z,1017.895203
2022-08-25T05:27:39.260Z,1017.965393
2022-08-25T05:28:42.950Z,1017.954163
2022-08-25T05:29:38.618Z,1017.969849
2022-08-25T05:30:41.977Z,1017.962402
2022-08-25T05:31:45.932Z,1017.939575
2022-08-25T05:31:50.364Z,1017.939575
2022-08-25T05:32:42.725Z,1017.974365
2022-08-25T05:33:40.771Z,1018.030273
2022-08-25T05:34:38.709Z,1018.037598
2022-08-25T05:35:39.913Z,1018.002808
2022-08-25T05:36:41.273Z,1018.10791
2022-08-25T05:37:42.495Z,1018.099792
2022-08-25T05:38:40.857Z,1018.06488
2022-08-25T05:39:38.949Z,1018.092163
2022-08-25T05:40:40.455Z,1018.010376
2022-08-25T05:42:39.071Z,1018.038452
2022-08-25T05:43:33.490Z,1018.00769
2022-08-25T05:44:36.464Z,1017.984863
2022-08-25T05:45:30.853Z,1017.919067
2022-08-25T05:47:26.881Z,1017.89624
2022-08-25T05:48:31.052Z,1017.892517
2022-08-25T05:49:24.883Z,1017.927795
2022-08-25T05:50:27.762Z,1017.86969
2022-08-25T05:51:21.301Z,1017.908691
2022-08-25T05:53:05.852Z,1017.875854
2022-08-25T05:53:46.435Z,1017.892883
2022-08-25T05:54:45.860Z,1017.90155
2022-08-25T05:55:43.152Z,1017.940308
2022-08-25T05:56:45.366Z,1017.940308
2022-08-25T05:57:39.883Z,1017.943909
2022-08-25T05:58:36.928Z,1017.892883
2022-08-25T05:59:38.880Z,1017.853516
2022-08-25T06:00:35.200Z,1017.962585
2022-08-25T06:02:29.901Z,1017.939636
2022-08-25T06:03:33.396Z,1017.928162
2022-08-25T06:04:28.065Z,1017.936035
2022-08-25T06:05:30.210Z,1017.944031
2022-08-25T06:07:25.040Z,1017.893799
2022-08-25T06:08:29.537Z,1017.850769
2022-08-25T06:09:24.823Z,1017.913025
2022-08-25T06:10:29.967Z,1017.933289
2022-08-25T06:11:26.261Z,1017.883179
2022-08-25T06:12:29.529Z,1017.918457
2022-08-25T06:13:28.892Z,1017.914795
2022-08-25T06:13:29.136Z,1017.914795
2022-08-25T06:14:30.339Z,1017.942566
2022-08-25T06:15:22.809Z,1017.915222
2022-08-25T06:17:21.662Z,1017.931091
2022-08-25T06:18:22.269Z,1017.9552
2022-08-25T06:19:16.835Z,1017.943848
2022-08-25T06:20:16.096Z,1017.990051
2022-08-25T06:21:18.964Z,1017.943848
2022-08-25T06:22:14.797Z,1017.932312
2022-08-25T06:23:18.733Z,1017.939941
2022-08-25T06:23:44.785Z,1017.920959
2022-08-25T06:24:45.389Z,1017.878174
2022-08-25T06:25:40.138Z,1017.905457
2022-08-25T06:26:39.673Z,1017.952942
2022-08-25T06:27:34.346Z,1017.910583
2022-08-25T06:28:36.291Z,1017.98468
2022-08-25T06:29:32.743Z,1017.934448
2022-08-25T06:30:36.646Z,1017.946533
2022-08-25T06:32:34.286Z,1017.943909
2022-08-25T06:34:13.529Z,1017.854004
2022-08-25T06:36:45.530Z,1017.919739
2022-08-25T06:37:11.909Z,1017.836182
2022-08-25T06:38:09.920Z,1017.896484
2022-08-25T06:39:10.597Z,1017.841858
2022-08-25T06:40:04.265Z,1017.872009
2022-08-25T06:41:10.826Z,1017.862793
2022-08-25T06:43:06.080Z,1017.899719
2022-08-25T06:44:06.184Z,1017.855347
2022-08-25T06:45:08.137Z,1017.932922
2022-08-25T06:45:59.041Z,1017.8703
2022-08-25T06:47:54.932Z,1017.979492
2022-08-25T06:48:52.843Z,1017.924866
2022-08-25T06:49:46.868Z,1017.975769
2022-08-25T06:50:50.533Z,1017.8703
2022-08-25T06:51:48.341Z,1017.905273
2022-08-25T06:52:42.697Z,1017.948486
2022-08-25T06:53:41.022Z,1017.983826
2022-08-25T06:54:39.184Z,1017.918213
2022-08-25T06:55:39.334Z,1017.991882
2022-08-25T06:57:33.255Z,1017.957458
2022-08-25T06:58:33.430Z,1017.950195
2022-08-25T06:59:25.133Z,1017.931274
2022-08-25T06:59:32.470Z,1017.931274
2022-08-25T07:00:30.297Z,1018.006226
2022-08-25T07:00:31.631Z,1018.006226
2022-08-25T07:01:25.991Z,1017.929504
2022-08-25T07:02:21.893Z,1017.895874
2022-08-25T07:03:19.506Z,1017.955322
2022-08-25T07:04:12.787Z,1017.928284
2022-08-25T07:05:13.215Z,1017.921082
2022-08-25T07:06:06.252Z,1018.007385
2022-08-25T07:07:59.267Z,1017.977112
2022-08-25T07:08:55.666Z,1018.020203
2022-08-25T07:09:56.268Z,1018.043762
2022-08-25T07:10:51.760Z,1018.051819
2022-08-25T07:12:44.576Z,1018.07196
2022-08-25T07:13:43.926Z,1018.025879
2022-08-25T07:14:38.306Z,1018.084351
2022-08-25T07:15:34.180Z,1018.030701
2022-08-25T07:17:20.421Z,1018.071045
2022-08-25T07:18:01.096Z,1018.076599
2022-08-25T07:19:01.598Z,1018.014954
2022-08-25T07:19:58.931Z,1018.097717
2022-08-25T07:21:02.610Z,1018.094177
2022-08-25T07:21:59.076Z,1018.055298
2022-08-25T07:22:55.673Z,1018.098572
2022-08-25T07:23:55.188Z,1018.012695
2022-08-25T07:24:51.762Z,1018.016846
2022-08-25T07:25:51.236Z,1017.970215
2022-08-25T07:27:48.913Z,1017.97821
2022-08-25T07:28:47.208Z,1018.014038
2022-08-25T07:28:47.454Z,1018.014038
2022-08-25T07:29:42.269Z,1017.976135
2022-08-25T07:30:37.079Z,1017.960999
2022-08-25T07:32:31.565Z,1017.883789
2022-08-25T07:33:28.632Z,1017.94696
2022-08-25T07:34:28.366Z,1017.880676
2022-08-25T07:35:23.990Z,1017.892822
2022-08-25T07:36:22.695Z,1017.896973
2022-08-25T07:37:32.245Z,1017.955933
2022-08-25T07:37:47.608Z,1017.955933
2022-08-25T07:37:48.145Z,1017.955933
2022-08-25T07:38:20.771Z,1017.843323
2022-08-25T07:39:15.141Z,1017.906677
2022-08-25T07:40:14.336Z,1017.856506
2022-08-25T07:41:09.673Z,1017.896057
2022-08-25T07:43:07.976Z,1017.825989
2022-08-25T07:44:03.572Z,1017.882019
2022-08-25T07:45:02.528Z,1017.866333
2022-08-25T07:46:04.884Z,1017.769287
2022-08-25T07:46:57.851Z,1017.800415
2022-08-25T07:47:59.265Z,1017.730469
2022-08-25T07:48:54.825Z,1017.730774
2022-08-25T07:49:55.301Z,1017.727539
2022-08-25T07:52:32.564Z,1017.729797
2022-08-25T07:53:32.450Z,1017.730774
2022-08-25T07:54:33.732Z,1017.730774
2022-08-25T07:54:34.315Z,1017.730774
2022-08-25T07:56:10.750Z,1017.787231
2022-08-25T07:57:11.104Z,1017.693909
2022-08-25T07:58:50.020Z,1017.726257
2022-08-25T07:59:50.170Z,1017.641479
2022-08-25T08:03:10.019Z,1017.626343
2022-08-25T08:03:19.816Z,1017.626343
2022-08-25T08:04:52.472Z,1017.612183
2022-08-25T08:08:09.171Z,1017.659973
2022-08-25T08:09:46.373Z,1017.691528
2022-08-25T08:11:21.869Z,1017.625
2022-08-25T08:13:07.227Z,1017.652649
2022-08-25T08:14:02.198Z,1017.649048
2022-08-25T08:16:40.759Z,1017.664185
2022-08-25T08:17:39.449Z,1017.653198
2022-08-25T08:18:40.623Z,1017.677063
2022-08-25T08:19:36.362Z,1017.63385
2022-08-25T08:20:42.628Z,1017.668396
2022-08-25T08:20:43.375Z,1017.668396
2022-08-25T08:21:36.309Z,1017.644714
2022-08-25T08:22:31.902Z,1017.562317
2022-08-25T08:23:34.946Z,1017.585754
2022-08-25T08:24:44.245Z,1017.625
2022-08-25T08:24:44.563Z,1017.625
2022-08-25T08:24:54.952Z,1017.625
2022-08-25T08:25:27.708Z,1017.601501
2022-08-25T08:26:41.896Z,1017.562317
2022-08-25T08:26:55.339Z,1017.562317
2022-08-25T08:26:57.385Z,1017.562317
2022-08-25T08:28:26.465Z,1017.511597
2022-08-25T08:29:22.750Z,1017.535706
2022-08-25T08:30:23.714Z,1017.535706
2022-08-25T08:31:26.545Z,1017.550842
2022-08-25T08:32:19.865Z,1017.664734
2022-08-25T08:33:21.148Z,1017.531372
2022-08-25T08:34:17.354Z,1017.566956
2022-08-25T08:35:16.905Z,1017.508545
2022-08-25T08:36:19.360Z,1017.465454
2022-08-25T08:37:13.698Z,1017.492615
2022-08-25T08:38:18.440Z,1017.476929
2022-08-25T08:38:22.222Z,1017.476929
2022-08-25T08:38:27.064Z,1017.476929
2022-08-25T08:39:13.849Z,1017.430054
2022-08-25T08:40:10.256Z,1017.446106
2022-08-25T08:41:14.019Z,1017.43042
2022-08-25T08:43:13.339Z,1017.406555
2022-08-25T08:43:18.305Z,1017.406555
2022-08-25T08:44:08.712Z,1017.375488
2022-08-25T08:45:04.966Z,1017.391235
2022-08-25T08:46:06.351Z,1017.379822
2022-08-25T08:48:03.221Z,1017.293274
2022-08-25T08:48:59.967Z,1017.324829
2022-08-25T08:50:01.938Z,1017.218872
2022-08-25T08:50:59.280Z,1017.262085
2022-08-25T08:52:57.309Z,1017.250061
2022-08-25T08:53:55.110Z,1017.261841
2022-08-25T08:54:53.836Z,1017.297363
2022-08-25T08:55:54.634Z,1017.159607
2022-08-25T08:56:52.843Z,1017.198853
2022-08-25T08:57:55.496Z,1017.183289
2022-08-25T08:58:49.876Z,1017.163635
2022-08-25T08:59:50.456Z,1017.163635
2022-08-25T09:00:46.772Z,1017.136169
2022-08-25T09:00:52.155Z,1017.136169
2022-08-25T09:02:51.498Z,1017.069519
2022-08-25T09:02:51.983Z,1017.069519
2022-08-25T09:04:30.760Z,1017.222839
2022-08-25T09:05:11.787Z,1017.144409
2022-08-25T09:06:09.656Z,1017.164063
2022-08-25T09:07:09.991Z,1017.195435
2022-08-25T09:08:06.073Z,1017.144897
2022-08-25T09:09:06.810Z,1017.124756
2022-08-25T09:10:02.278Z,1017.109131
2022-08-25T09:11:01.826Z,1017.081665
2022-08-25T09:11:57.429Z,1017.117371
2022-08-25T09:12:57.219Z,1017.109131
2022-08-25T09:13:53.725Z,1017.093262
2022-08-25T09:14:56.448Z,1016.983337
2022-08-25T09:15:49.230Z,1017.014893
2022-08-25T09:17:45.458Z,1017.01886
2022-08-25T09:17:54.492Z,1017.01886
2022-08-25T09:18:51.247Z,1017.034485
2022-08-25T09:18:52.649Z,1017.034485
2022-08-25T09:19:45.582Z,1016.991394
2022-08-25T09:20:41.771Z,1017.015198
2022-08-25T09:22:36.897Z,1016.936523
2022-08-25T09:23:37.307Z,1016.909119
2022-08-25T09:24:34.161Z,1016.916565
2022-08-25T09:25:52.317Z,1016.909119
2022-08-25T09:25:53.124Z,1016.909119
2022-08-25T09:25:53.207Z,1016.909119
2022-08-25T09:26:33.285Z,1016.944519
2022-08-25T09:28:32.348Z,1016.834534
2022-08-25T09:29:25.356Z,1016.869446
2022-08-25T09:30:25.634Z,1016.854309
2022-08-25T09:31:21.114Z,1016.916748
2022-08-25T09:32:24.061Z,1016.861694
2022-08-25T09:33:20.876Z,1016.846069
2022-08-25T09:34:17.281Z,1016.767395
2022-08-25T09:35:13.467Z,1016.763367
2022-08-25T09:36:11.150Z,1016.806641
2022-08-25T09:37:11.292Z,1016.743835
2022-08-25T09:38:07.121Z,1016.751587
2022-08-25T09:39:06.616Z,1016.661377
2022-08-25T09:40:06.898Z,1016.716309
2022-08-25T09:41:02.781Z,1016.728027
2022-08-25T09:43:03.424Z,1016.716309
2022-08-25T09:44:03.925Z,1016.720337
2022-08-25T09:45:02.862Z,1016.708435
2022-08-25T09:46:39.689Z,1016.743896
2022-08-25T09:46:44.925Z,1016.743896
2022-08-25T09:47:19.786Z,1016.770813
2022-08-25T09:48:18.871Z,1016.747742
2022-08-25T09:49:18.655Z,1016.653687
2022-08-25T09:50:18.452Z,1016.672791
2022-08-25T09:51:17.328Z,1016.711914
2022-08-25T09:52:12.921Z,1016.597839
2022-08-25T09:53:13.751Z,1016.613647
2022-08-25T09:54:10.944Z,1016.574341
2022-08-25T09:55:09.551Z,1016.601868
2022-08-25T09:56:06.206Z,1016.571167
2022-08-25T09:57:08.789Z,1016.617798
2022-08-25T09:58:01.964Z,1016.653687
2022-08-25T09:58:09.656Z,1016.653687
2022-08-25T09:59:03.214Z,1016.614319
2022-08-25T09:59:57.820Z,1016.535767
2022-08-25T10:00:57.752Z,1016.56665
2022-08-25T10:01:56.936Z,1016.59082
2022-08-25T10:02:56.879Z,1016.594299
2022-08-25T10:03:52.371Z,1016.495972
2022-08-25T10:04:50.623Z,1016.515991
2022-08-25T10:05:49.686Z,1016.42926
2022-08-25T10:05:56.265Z,1016.42926
2022-08-25T10:07:42.429Z,1016.464417
2022-08-25T10:08:44.502Z,1016.389709
2022-08-25T10:09:37.579Z,1016.334656
2022-08-25T10:10:37.303Z,1016.362183
2022-08-25T10:11:35.100Z,1016.374023
2022-08-25T10:12:37.283Z,1016.37793
2022-08-25T10:12:43.126Z,1016.37793
2022-08-25T10:13:35.487Z,1016.354248
2022-08-25T10:14:30.796Z,1016.421265
2022-08-25T10:15:33.205Z,1016.330688
2022-08-25T10:16:29.630Z,1016.373901
2022-08-25T10:16:34.499Z,1016.373901
2022-08-25T10:18:25.975Z,1016.32666
2022-08-25T10:19:20.609Z,1016.36554
2022-08-25T10:20:23.530Z,1016.393005
2022-08-25T10:21:18.369Z,1016.310486
2022-08-25T10:23:12.756Z,1016.282898
2022-08-25T10:24:11.331Z,1016.259827
2022-08-25T10:25:13.353Z,1016.240295
2022-08-25T10:26:08.370Z,1016.314941
2022-08-25T10:28:09.286Z,1016.263855
2022-08-25T10:29:03.685Z,1016.23645
2022-08-25T10:30:02.866Z,1016.279541
2022-08-25T10:30:58.088Z,1016.279541
2022-08-25T10:31:54.832Z,1016.2323
2022-08-25T10:33:33.335Z,1016.216125
2022-08-25T10:34:15.158Z,1016.30304
2022-08-25T10:35:14.385Z,1016.15741
2022-08-25T10:36:14.985Z,1016.188416
2022-08-25T10:36:20.381Z,1016.188416
2022-08-25T10:38:13.129Z,1016.137207
2022-08-25T10:38:21.629Z,1016.137207
2022-08-25T10:39:33.848Z,1016.078674
2022-08-25T10:39:33.869Z,1016.078674
2022-08-25T10:39:34.293Z,1016.078674
2022-08-25T10:40:16.724Z,1016.113342
2022-08-25T10:41:11.242Z,1016.12915
2022-08-25T10:43:08.145Z,1016.085938
2022-08-25T10:44:08.080Z,1016.03479
2022-08-25T10:45:04.711Z,1016.007446
2022-08-25T10:46:07.345Z,1015.999939
2022-08-25T10:47:03.529Z,1016.10614
2022-08-25T10:48:05.833Z,1016.047241
2022-08-25T10:49:01.198Z,1015.913208
2022-08-25T10:50:01.634Z,1015.945068
2022-08-25T10:50:56.984Z,1015.917664
2022-08-25T10:51:57.262Z,1015.991943
2022-08-25T10:52:55.074Z,1015.924988
2022-08-25T10:53:54.242Z,1015.940735
2022-08-25T10:54:54.823Z,1015.921509
2022-08-25T10:55:51.183Z,1015.909546
2022-08-25T10:58:00.991Z,1015.806885
2022-08-25T10:58:54.064Z,1015.834717
2022-08-25T10:59:50.497Z,1015.858032
2022-08-25T11:00:53.273Z,1015.861877
2022-08-25T11:01:48.591Z,1015.818542
2022-08-25T11:01:53.986Z,1015.818542
2022-08-25T11:02:48.926Z,1015.798706
2022-08-25T11:03:48.897Z,1015.791077
2022-08-25T11:04:48.084Z,1015.791077
2022-08-25T11:05:44.612Z,1015.850098
2022-08-25T11:06:44.778Z,1015.764038
2022-08-25T11:07:40.319Z,1015.830933
2022-08-25T11:08:44.129Z,1015.862
2022-08-25T11:09:36.887Z,1015.901306
2022-08-25T11:10:38.255Z,1015.81134
2022-08-25T11:11:35.068Z,1015.830627
2022-08-25T11:12:33.086Z,1015.791321
2022-08-25T11:13:37.316Z,1015.685486
2022-08-25T11:14:34.649Z,1015.692932
2022-08-25T11:15:34.536Z,1015.791321
2022-08-25T11:16:31.010Z,1015.692932
2022-08-25T11:17:34.550Z,1015.720581
2022-08-25T11:18:27.544Z,1015.720581
2022-08-25T11:19:30.467Z,1015.610413
2022-08-25T11:20:27.471Z,1015.673767
2022-08-25T11:21:23.834Z,1015.649963
2022-08-25T11:23:21.512Z,1015.665771
2022-08-25T11:24:28.827Z,1015.677612
2022-08-25T11:25:27.663Z,1015.705078
2022-08-25T11:27:05.775Z,1015.633789
2022-08-25T11:27:45.749Z,1015.641479
2022-08-25T11:28:45.880Z,1015.645447
2022-08-25T11:29:44.221Z,1015.625671
2022-08-25T11:30:44.931Z,1015.566772
2022-08-25T11:31:39.961Z,1015.720337